Barhamsville, Virginia
Current Conditions -  °F | °C
As of 8:35 AM on Wednesday 22 Oct 2014 (Local Time) from KFYJ Reporting Station
Overcast Overcast  
Wind Chill: 55°   Ceiling: 800
Heat Index: 55°   Visibility: 10mi
Dew Point: 51°   Wind: 9mph
Humidity: 87%   Direction: 300°WNW
Pressure: 29.87"   Gusts: NA
Location:  37.45°N, 76.84°W
Report Text: KFYJ 221235Z AUTO 30008KT 10SM OVC008 13/11 A2987 RMK AO2 T01300108
Loading
Personal Weather Stations






























Interactive Weather Map
Tropical Storm Tracking
New forecast layout! Learn more

10-Day Weather Forecast

Advertisements
Track Severe Weather on mobile